x

Destruction Island, Wa (desw1) Weather Station

5:00 - Fri 29th May 2015 All times are PDT. -7 hours from GMT.

  • Wind
    7mph, 9mph gusts
  • Aire Temp 54°f
  • Sea Pressure 1016.5mb
  • Destruction Island, Wa
  • Destruction Island, Wa

More Historic Weather Station data

Upgrade to MSW Pro to gain access to the past 30 days of data for over 8000 Wavebouys and Weather Stations around the globe.

Join Pro

Comparision Forecast

View Surf forecast
   
vie 05/29 5:00 7 9 mph 1016.5mb 54f
4:00 9 10 mph 1016.8mb 54f
3:00 8 10 mph 1016.8mb 55f
2:00 7 8 mph 1016.9mb 55f
1:00 8 9 mph 1017.1mb 54f
12:00 2 6 mph 1017.5mb 55f
11:00 3
mph
1017.4mb 53f
10:00 2 3 mph 1017.5mb 52f
9:00 7 8 mph 1017.4mb 50f
8:00 2 5 mph 1017.1mb 49f
7:00  -  1 mph 1017mb 49f
6:00  -  mph 1017mb 49f
5:00 5 6 mph 1016.8mb 49f
4:00 3 5 mph 1017mb 49f
3:00 6 8 mph 1017.2mb 50f
2:00 5 6 mph 1017.4mb 50f
1:00 2 3 mph 1017.6mb 50f
12:00 3 5 mph 1017.7mb 50f
jue 05/28 11:00 5 6 mph 1017.8mb 50f
10:00 8
mph
1017.8mb 50f
9:00 7 10 mph 1017.5mb 51f
8:00 8 10 mph 1017.5mb 51f
7:00 6 8 mph 1017.7mb 52f
6:00 5 6 mph 1018.3mb 53f
5:00 5 6 mph 1018.7mb 54f
4:00  -  2 mph 1019.1mb 55f
3:00 5 6 mph 1019.2mb 54f
2:00 8 9 mph 1019.4mb 54f
1:00 3 5 mph 1019.5mb 54f
12:00 2 3 mph 1019.9mb 53f
11:00 7 8 mph 1019.8mb 51f
10:00 7 8 mph 1019.8mb 51f
9:00 7 9 mph 1019.8mb 50f
8:00 3 6 mph 1019.4mb 49f
7:00 1 2 mph 1019.3mb 49f
6:00 2 3 mph 1019mb 49f
5:00 1 2 mph 1018.5mb 49f
4:00 1 2 mph 1018.5mb 49f
3:00 1 2 mph 1018.7mb 49f
2:00  -  1 mph 1018.8mb 49f
1:00 1 2 mph 1019.1mb 49f
12:00  -  mph 1018.9mb 50f
mié 05/27 11:00 3
mph
1018.8mb 50f
10:00 6 7 mph 1018.7mb 50f
9:00 5 7 mph 1018.3mb 51f
8:00 7 8 mph 1018.3mb 51f
7:00 7 9 mph 1018.3mb 52f
6:00 8 9 mph 1018.6mb 52f
5:00 8 9 mph 1019.1mb 53f
4:00 7 8 mph 1019.1mb 53f
3:00 3 7 mph 1019.4mb 55f
2:00 7 8 mph 1019.6mb 54f
1:00 7
mph
1019.6mb 53f
12:00 3
mph
1019.6mb 55f
11:00 5 6 mph 1019.5mb 52f
10:00 3 5 mph 1019.3mb 52f
9:00 1
mph
1019.2mb 50f
8:00 3
mph
1019mb 50f
7:00 6 7 mph 1019mb 50f
6:00 7 8 mph 1018.9mb 50f
5:00 6 7 mph 1018.8mb 49f
4:00 8 9 mph 1018.8mb 49f
3:00 3 7 mph 1018.5mb 50f
2:00 7 9 mph 1018.4mb 50f
1:00 3 6 mph 1018.4mb 50f
12:00 5
mph
1018.6mb 50f
mar 05/26 11:00 5 6 mph 1018.4mb 50f
10:00  -  2 mph 1018.6mb 51f
9:00 5 6 mph 1018.2mb 51f
8:00 6 7 mph 1018mb 52f
7:00 7 8 mph 1017.9mb 53f
6:00 2 3 mph 1018mb 54f
5:00 6 8 mph 1018.5mb 55f
4:00 6 7 mph 1018.7mb 56f
3:00 7 8 mph 1018.7mb 56f
2:00 5 6 mph 1018.9mb 57f
1:00 3 5 mph 1019mb 55f
12:00 3 5 mph 1018.8mb 55f
11:00 3 5 mph 1018.7mb 55f
10:00 1 2 mph 1018.6mb 54f
9:00  -  2 mph 1018.5mb 52f
8:00  -  mph 1018.2mb 52f
7:00 5
mph
1018.1mb 50f
6:00 5 6 mph 1017.9mb 50f
5:00 3 5 mph 1017.5mb 50f
4:00 5
mph
1017.5mb 50f
3:00 2
mph
1017.5mb 51f
2:00 3
mph
1017.2mb 51f